sensor_id;sensor_type;location;lat;lon;timestamp;P1;durP1;ratioP1;P2;durP2;ratioP2
53881;SDS011;39794;55.782;37.452;2022-11-22T00:01:20;14.38;;;7.25;;
53881;SDS011;39794;55.782;37.452;2022-11-22T00:03:49;26.15;;;11.27;;
53881;SDS011;39794;55.782;37.452;2022-11-22T00:06:17;17.25;;;8.00;;
53881;SDS011;39794;55.782;37.452;2022-11-22T00:08:45;17.70;;;10.15;;
53881;SDS011;39794;55.782;37.452;2022-11-22T00:11:14;21.77;;;10.65;;
53881;SDS011;39794;55.782;37.452;2022-11-22T00:13:44;20.83;;;9.52;;
53881;SDS011;39794;55.782;37.452;2022-11-22T00:16:13;24.95;;;12.00;;
53881;SDS011;39794;55.782;37.452;2022-11-22T00:18:41;29.27;;;12.13;;
53881;SDS011;39794;55.782;37.452;2022-11-22T00:21:10;19.45;;;8.57;;
53881;SDS011;39794;55.782;37.452;2022-11-22T00:23:38;15.80;;;8.65;;
53881;SDS011;39794;55.782;37.452;2022-11-22T00:26:06;21.67;;;9.63;;
53881;SDS011;39794;55.782;37.452;2022-11-22T00:28:38;28.38;;;11.77;;
53881;SDS011;39794;55.782;37.452;2022-11-22T00:31:07;23.50;;;10.75;;
53881;SDS011;39794;55.782;37.452;2022-11-22T00:33:36;21.25;;;10.05;;
53881;SDS011;39794;55.782;37.452;2022-11-22T00:36:04;23.27;;;11.52;;
53881;SDS011;39794;55.782;37.452;2022-11-22T00:38:33;25.83;;;11.43;;
53881;SDS011;39794;55.782;37.452;2022-11-22T00:41:01;26.55;;;12.13;;
53881;SDS011;39794;55.782;37.452;2022-11-22T00:43:30;21.83;;;10.30;;
53881;SDS011;39794;55.782;37.452;2022-11-22T00:45:58;21.45;;;10.48;;
53881;SDS011;39794;55.782;37.452;2022-11-22T00:48:28;25.75;;;11.13;;
53881;SDS011;39794;55.782;37.452;2022-11-22T00:50:56;24.23;;;10.60;;
53881;SDS011;39794;55.782;37.452;2022-11-22T00:53:25;23.05;;;11.50;;
53881;SDS011;39794;55.782;37.452;2022-11-22T00:55:53;15.25;;;6.63;;
53881;SDS011;39794;55.782;37.452;2022-11-22T00:58:22;25.80;;;11.40;;
53881;SDS011;39794;55.782;37.452;2022-11-22T01:00:50;23.35;;;10.05;;
53881;SDS011;39794;55.782;37.452;2022-11-22T01:03:22;25.65;;;12.35;;
53881;SDS011;39794;55.782;37.452;2022-11-22T01:05:52;24.80;;;12.05;;
53881;SDS011;39794;55.782;37.452;2022-11-22T01:08:20;24.23;;;10.73;;
53881;SDS011;39794;55.782;37.452;2022-11-22T01:10:53;24.58;;;11.80;;
53881;SDS011;39794;55.782;37.452;2022-11-22T01:13:22;15.40;;;7.88;;
53881;SDS011;39794;55.782;37.452;2022-11-22T01:15:51;26.27;;;12.23;;
53881;SDS011;39794;55.782;37.452;2022-11-22T01:18:19;30.15;;;11.68;;
53881;SDS011;39794;55.782;37.452;2022-11-22T01:20:48;19.88;;;9.07;;
53881;SDS011;39794;55.782;37.452;2022-11-22T01:23:17;21.02;;;10.07;;
53881;SDS011;39794;55.782;37.452;2022-11-22T01:25:46;22.52;;;11.43;;
53881;SDS011;39794;55.782;37.452;2022-11-22T01:28:14;25.70;;;10.68;;
53881;SDS011;39794;55.782;37.452;2022-11-22T01:30:43;27.63;;;12.35;;
53881;SDS011;39794;55.782;37.452;2022-11-22T01:33:11;26.27;;;11.43;;
53881;SDS011;39794;55.782;37.452;2022-11-22T01:35:39;24.70;;;11.20;;
53881;SDS011;39794;55.782;37.452;2022-11-22T01:38:08;29.50;;;11.57;;
53881;SDS011;39794;55.782;37.452;2022-11-22T01:40:38;15.18;;;7.70;;
53881;SDS011;39794;55.782;37.452;2022-11-22T01:43:10;20.80;;;10.70;;
53881;SDS011;39794;55.782;37.452;2022-11-22T01:45:46;24.45;;;10.88;;
53881;SDS011;39794;55.782;37.452;2022-11-22T01:48:24;26.20;;;11.23;;
53881;SDS011;39794;55.782;37.452;2022-11-22T01:50:57;19.10;;;8.25;;
53881;SDS011;39794;55.782;37.452;2022-11-22T01:53:29;31.85;;;12.88;;
53881;SDS011;39794;55.782;37.452;2022-11-22T01:56:04;16.33;;;7.28;;
53881;SDS011;39794;55.782;37.452;2022-11-22T01:58:36;27.70;;;11.82;;
53881;SDS011;39794;55.782;37.452;2022-11-22T02:01:06;24.55;;;11.15;;
53881;SDS011;39794;55.782;37.452;2022-11-22T02:03:35;27.60;;;11.23;;
53881;SDS011;39794;55.782;37.452;2022-11-22T02:06:06;28.70;;;12.07;;
53881;SDS011;39794;55.782;37.452;2022-11-22T02:08:36;26.75;;;11.32;;
53881;SDS011;39794;55.782;37.452;2022-11-22T02:11:09;29.83;;;12.77;;
53881;SDS011;39794;55.782;37.452;2022-11-22T02:13:38;27.02;;;11.80;;
53881;SDS011;39794;55.782;37.452;2022-11-22T02:16:08;22.27;;;9.45;;
53881;SDS011;39794;55.782;37.452;2022-11-22T02:18:37;27.70;;;12.10;;
53881;SDS011;39794;55.782;37.452;2022-11-22T02:21:06;16.13;;;8.40;;
53881;SDS011;39794;55.782;37.452;2022-11-22T02:23:38;25.75;;;14.10;;
53881;SDS011;39794;55.782;37.452;2022-11-22T02:26:12;17.42;;;7.82;;
53881;SDS011;39794;55.782;37.452;2022-11-22T02:28:41;22.23;;;9.75;;
53881;SDS011;39794;55.782;37.452;2022-11-22T02:34:02;25.65;;;11.52;;
53881;SDS011;39794;55.782;37.452;2022-11-22T02:36:32;22.55;;;9.48;;
53881;SDS011;39794;55.782;37.452;2022-11-22T02:39:02;21.88;;;10.35;;
53881;SDS011;39794;55.782;37.452;2022-11-22T02:41:32;30.65;;;11.75;;
53881;SDS011;39794;55.782;37.452;2022-11-22T02:44:01;21.75;;;10.68;;
53881;SDS011;39794;55.782;37.452;2022-11-22T02:46:29;19.27;;;9.07;;
53881;SDS011;39794;55.782;37.452;2022-11-22T02:48:57;24.63;;;10.98;;
53881;SDS011;39794;55.782;37.452;2022-11-22T02:51:26;20.63;;;9.88;;
53881;SDS011;39794;55.782;37.452;2022-11-22T02:53:54;25.17;;;11.85;;
53881;SDS011;39794;55.782;37.452;2022-11-22T02:56:23;21.70;;;10.45;;
53881;SDS011;39794;55.782;37.452;2022-11-22T02:58:52;21.92;;;9.13;;
53881;SDS011;39794;55.782;37.452;2022-11-22T03:01:21;26.95;;;11.55;;
53881;SDS011;39794;55.782;37.452;2022-11-22T03:03:49;22.38;;;9.60;;
53881;SDS011;39794;55.782;37.452;2022-11-22T03:06:17;17.08;;;9.40;;
53881;SDS011;39794;55.782;37.452;2022-11-22T03:08:46;17.10;;;7.00;;
53881;SDS011;39794;55.782;37.452;2022-11-22T03:11:21;20.80;;;8.57;;
53881;SDS011;39794;55.782;37.452;2022-11-22T03:13:50;16.80;;;7.43;;
53881;SDS011;39794;55.782;37.452;2022-11-22T03:16:20;18.15;;;7.72;;
53881;SDS011;39794;55.782;37.452;2022-11-22T03:18:48;16.63;;;7.13;;
53881;SDS011;39794;55.782;37.452;2022-11-22T03:21:16;23.30;;;10.65;;
53881;SDS011;39794;55.782;37.452;2022-11-22T03:23:45;23.50;;;10.90;;
53881;SDS011;39794;55.782;37.452;2022-11-22T03:26:13;16.23;;;8.30;;
53881;SDS011;39794;55.782;37.452;2022-11-22T03:28:41;26.38;;;10.77;;
53881;SDS011;39794;55.782;37.452;2022-11-22T03:31:09;15.13;;;7.47;;
53881;SDS011;39794;55.782;37.452;2022-11-22T03:33:39;22.05;;;10.10;;
53881;SDS011;39794;55.782;37.452;2022-11-22T03:36:08;19.92;;;9.95;;
53881;SDS011;39794;55.782;37.452;2022-11-22T03:38:36;21.83;;;10.23;;
53881;SDS011;39794;55.782;37.452;2022-11-22T03:41:04;23.85;;;11.35;;
53881;SDS011;39794;55.782;37.452;2022-11-22T03:43:32;25.52;;;10.57;;
53881;SDS011;39794;55.782;37.452;2022-11-22T03:46:01;20.33;;;8.98;;
53881;SDS011;39794;55.782;37.452;2022-11-22T03:48:30;23.42;;;9.48;;
53881;SDS011;39794;55.782;37.452;2022-11-22T03:51:03;27.27;;;10.43;;
53881;SDS011;39794;55.782;37.452;2022-11-22T03:53:32;15.18;;;7.00;;
53881;SDS011;39794;55.782;37.452;2022-11-22T03:56:00;21.92;;;10.63;;
53881;SDS011;39794;55.782;37.452;2022-11-22T03:58:28;21.70;;;9.75;;
53881;SDS011;39794;55.782;37.452;2022-11-22T04:00:57;16.55;;;7.82;;
53881;SDS011;39794;55.782;37.452;2022-11-22T04:03:26;18.58;;;9.82;;
53881;SDS011;39794;55.782;37.452;2022-11-22T04:05:54;23.33;;;10.45;;
53881;SDS011;39794;55.782;37.452;2022-11-22T04:08:24;20.73;;;8.75;;
53881;SDS011;39794;55.782;37.452;2022-11-22T04:10:53;17.58;;;9.57;;
53881;SDS011;39794;55.782;37.452;2022-11-22T04:13:21;16.20;;;8.88;;
53881;SDS011;39794;55.782;37.452;2022-11-22T04:16:09;30.88;;;9.38;;
53881;SDS011;39794;55.782;37.452;2022-11-22T04:18:37;23.58;;;9.93;;
53881;SDS011;39794;55.782;37.452;2022-11-22T04:21:05;28.88;;;12.02;;
53881;SDS011;39794;55.782;37.452;2022-11-22T04:23:53;24.63;;;11.60;;
53881;SDS011;39794;55.782;37.452;2022-11-22T04:26:35;23.60;;;9.30;;
53881;SDS011;39794;55.782;37.452;2022-11-22T04:29:03;18.92;;;8.75;;
53881;SDS011;39794;55.782;37.452;2022-11-22T04:31:36;21.80;;;10.13;;
53881;SDS011;39794;55.782;37.452;2022-11-22T04:34:22;23.83;;;11.63;;
53881;SDS011;39794;55.782;37.452;2022-11-22T04:36:50;30.50;;;12.95;;
53881;SDS011;39794;55.782;37.452;2022-11-22T04:39:20;22.98;;;11.35;;
53881;SDS011;39794;55.782;37.452;2022-11-22T04:41:50;27.63;;;10.85;;
53881;SDS011;39794;55.782;37.452;2022-11-22T04:44:39;20.35;;;9.23;;
53881;SDS011;39794;55.782;37.452;2022-11-22T04:47:07;23.80;;;11.65;;
53881;SDS011;39794;55.782;37.452;2022-11-22T04:49:35;18.50;;;8.75;;
53881;SDS011;39794;55.782;37.452;2022-11-22T04:52:04;26.08;;;11.27;;
53881;SDS011;39794;55.782;37.452;2022-11-22T04:54:51;15.13;;;7.50;;
53881;SDS011;39794;55.782;37.452;2022-11-22T04:57:20;21.95;;;10.55;;
53881;SDS011;39794;55.782;37.452;2022-11-22T04:59:48;14.27;;;6.28;;
53881;SDS011;39794;55.782;37.452;2022-11-22T05:02:16;14.55;;;7.43;;
53881;SDS011;39794;55.782;37.452;2022-11-22T05:04:45;23.50;;;10.77;;
53881;SDS011;39794;55.782;37.452;2022-11-22T05:07:16;16.23;;;7.82;;
53881;SDS011;39794;55.782;37.452;2022-11-22T05:09:45;21.38;;;9.93;;
53881;SDS011;39794;55.782;37.452;2022-11-22T05:12:14;26.17;;;10.55;;
53881;SDS011;39794;55.782;37.452;2022-11-22T05:14:43;23.23;;;10.30;;
53881;SDS011;39794;55.782;37.452;2022-11-22T05:17:11;19.08;;;8.52;;
53881;SDS011;39794;55.782;37.452;2022-11-22T05:19:39;15.43;;;6.97;;
53881;SDS011;39794;55.782;37.452;2022-11-22T05:22:14;20.60;;;10.20;;
53881;SDS011;39794;55.782;37.452;2022-11-22T05:24:43;14.93;;;6.82;;
53881;SDS011;39794;55.782;37.452;2022-11-22T05:27:10;18.77;;;9.73;;
53881;SDS011;39794;55.782;37.452;2022-11-22T05:29:40;15.20;;;7.45;;
53881;SDS011;39794;55.782;37.452;2022-11-22T05:32:08;17.10;;;7.97;;
53881;SDS011;39794;55.782;37.452;2022-11-22T05:34:37;13.65;;;6.10;;
53881;SDS011;39794;55.782;37.452;2022-11-22T05:37:05;18.33;;;7.93;;
53881;SDS011;39794;55.782;37.452;2022-11-22T05:39:33;13.48;;;5.80;;
53881;SDS011;39794;55.782;37.452;2022-11-22T05:42:02;17.95;;;9.43;;
53881;SDS011;39794;55.782;37.452;2022-11-22T05:44:31;10.05;;;5.70;;
53881;SDS011;39794;55.782;37.452;2022-11-22T05:47:01;16.92;;;8.48;;
53881;SDS011;39794;55.782;37.452;2022-11-22T05:49:29;20.83;;;8.45;;
53881;SDS011;39794;55.782;37.452;2022-11-22T05:51:58;13.73;;;7.22;;
53881;SDS011;39794;55.782;37.452;2022-11-22T05:54:28;13.75;;;6.88;;
53881;SDS011;39794;55.782;37.452;2022-11-22T05:56:57;14.55;;;6.40;;
53881;SDS011;39794;55.782;37.452;2022-11-22T05:59:25;16.45;;;6.63;;
53881;SDS011;39794;55.782;37.452;2022-11-22T06:01:54;13.05;;;7.07;;
53881;SDS011;39794;55.782;37.452;2022-11-22T06:04:24;12.07;;;5.03;;
53881;SDS011;39794;55.782;37.452;2022-11-22T06:06:52;12.20;;;6.32;;
53881;SDS011;39794;55.782;37.452;2022-11-22T06:09:21;9.50;;;5.25;;
53881;SDS011;39794;55.782;37.452;2022-11-22T06:11:49;15.48;;;7.35;;
53881;SDS011;39794;55.782;37.452;2022-11-22T06:14:17;10.38;;;5.57;;
53881;SDS011;39794;55.782;37.452;2022-11-22T06:16:46;15.20;;;6.85;;
53881;SDS011;39794;55.782;37.452;2022-11-22T06:19:14;12.73;;;5.78;;
53881;SDS011;39794;55.782;37.452;2022-11-22T06:21:44;12.18;;;6.40;;
53881;SDS011;39794;55.782;37.452;2022-11-22T06:24:12;15.85;;;7.95;;
53881;SDS011;39794;55.782;37.452;2022-11-22T06:26:41;17.80;;;7.47;;
53881;SDS011;39794;55.782;37.452;2022-11-22T06:29:09;11.63;;;6.10;;
53881;SDS011;39794;55.782;37.452;2022-11-22T06:31:37;14.52;;;7.20;;
53881;SDS011;39794;55.782;37.452;2022-11-22T06:34:06;12.60;;;5.72;;
53881;SDS011;39794;55.782;37.452;2022-11-22T06:36:35;15.43;;;7.50;;
53881;SDS011;39794;55.782;37.452;2022-11-22T06:39:08;10.38;;;5.28;;
53881;SDS011;39794;55.782;37.452;2022-11-22T06:41:37;9.30;;;4.82;;
53881;SDS011;39794;55.782;37.452;2022-11-22T06:44:06;11.48;;;4.70;;
53881;SDS011;39794;55.782;37.452;2022-11-22T06:46:36;10.20;;;4.95;;
53881;SDS011;39794;55.782;37.452;2022-11-22T06:49:04;9.55;;;4.47;;
53881;SDS011;39794;55.782;37.452;2022-11-22T06:51:32;7.93;;;4.78;;
53881;SDS011;39794;55.782;37.452;2022-11-22T06:54:01;7.90;;;5.18;;
53881;SDS011;39794;55.782;37.452;2022-11-22T06:56:31;11.60;;;4.68;;
53881;SDS011;39794;55.782;37.452;2022-11-22T06:59:05;9.93;;;5.38;;
53881;SDS011;39794;55.782;37.452;2022-11-22T07:01:35;10.20;;;5.18;;
53881;SDS011;39794;55.782;37.452;2022-11-22T07:04:04;9.02;;;5.15;;
53881;SDS011;39794;55.782;37.452;2022-11-22T07:06:34;8.80;;;4.88;;
53881;SDS011;39794;55.782;37.452;2022-11-22T07:09:04;8.50;;;4.20;;
53881;SDS011;39794;55.782;37.452;2022-11-22T07:11:35;10.90;;;4.60;;
53881;SDS011;39794;55.782;37.452;2022-11-22T07:14:07;10.70;;;4.95;;
53881;SDS011;39794;55.782;37.452;2022-11-22T07:16:35;16.67;;;5.78;;
53881;SDS011;39794;55.782;37.452;2022-11-22T07:19:04;9.43;;;4.32;;
53881;SDS011;39794;55.782;37.452;2022-11-22T07:21:33;10.25;;;5.57;;
53881;SDS011;39794;55.782;37.452;2022-11-22T07:24:04;11.20;;;5.80;;
53881;SDS011;39794;55.782;37.452;2022-11-22T07:26:33;10.70;;;4.57;;
53881;SDS011;39794;55.782;37.452;2022-11-22T07:29:03;8.43;;;4.50;;
53881;SDS011;39794;55.782;37.452;2022-11-22T07:31:31;11.20;;;5.05;;
53881;SDS011;39794;55.782;37.452;2022-11-22T07:34:00;13.75;;;5.55;;
53881;SDS011;39794;55.782;37.452;2022-11-22T07:36:28;7.07;;;4.15;;
53881;SDS011;39794;55.782;37.452;2022-11-22T07:38:57;6.10;;;3.58;;
53881;SDS011;39794;55.782;37.452;2022-11-22T07:41:26;8.23;;;5.20;;
53881;SDS011;39794;55.782;37.452;2022-11-22T07:43:54;11.32;;;5.13;;
53881;SDS011;39794;55.782;37.452;2022-11-22T07:46:25;11.20;;;5.22;;
53881;SDS011;39794;55.782;37.452;2022-11-22T07:48:57;8.60;;;4.70;;
53881;SDS011;39794;55.782;37.452;2022-11-22T07:51:26;8.77;;;4.90;;
53881;SDS011;39794;55.782;37.452;2022-11-22T07:53:54;9.40;;;4.63;;
53881;SDS011;39794;55.782;37.452;2022-11-22T07:56:23;4.65;;;2.40;;
53881;SDS011;39794;55.782;37.452;2022-11-22T07:58:51;5.38;;;3.15;;
53881;SDS011;39794;55.782;37.452;2022-11-22T08:01:20;7.53;;;4.20;;
53881;SDS011;39794;55.782;37.452;2022-11-22T08:03:50;8.10;;;3.90;;
53881;SDS011;39794;55.782;37.452;2022-11-22T08:06:19;8.15;;;4.53;;
53881;SDS011;39794;55.782;37.452;2022-11-22T08:08:47;5.90;;;3.55;;
53881;SDS011;39794;55.782;37.452;2022-11-22T08:11:16;7.93;;;4.07;;
53881;SDS011;39794;55.782;37.452;2022-11-22T08:13:45;7.65;;;4.32;;
53881;SDS011;39794;55.782;37.452;2022-11-22T08:16:14;7.57;;;3.05;;
53881;SDS011;39794;55.782;37.452;2022-11-22T08:18:45;8.73;;;4.78;;
53881;SDS011;39794;55.782;37.452;2022-11-22T08:21:16;8.25;;;4.72;;
53881;SDS011;39794;55.782;37.452;2022-11-22T08:23:45;8.73;;;3.72;;
53881;SDS011;39794;55.782;37.452;2022-11-22T08:26:15;11.63;;;4.53;;
53881;SDS011;39794;55.782;37.452;2022-11-22T08:28:44;10.15;;;5.10;;
53881;SDS011;39794;55.782;37.452;2022-11-22T08:31:13;13.02;;;4.97;;
53881;SDS011;39794;55.782;37.452;2022-11-22T08:33:42;9.23;;;4.18;;
53881;SDS011;39794;55.782;37.452;2022-11-22T08:36:11;15.77;;;4.65;;
53881;SDS011;39794;55.782;37.452;2022-11-22T08:38:43;5.60;;;3.53;;
53881;SDS011;39794;55.782;37.452;2022-11-22T08:41:11;10.95;;;4.82;;
53881;SDS011;39794;55.782;37.452;2022-11-22T08:43:39;7.35;;;3.30;;
53881;SDS011;39794;55.782;37.452;2022-11-22T08:46:08;8.27;;;3.28;;
53881;SDS011;39794;55.782;37.452;2022-11-22T08:48:36;9.38;;;3.85;;
53881;SDS011;39794;55.782;37.452;2022-11-22T08:51:07;7.15;;;4.22;;
53881;SDS011;39794;55.782;37.452;2022-11-22T08:53:37;5.20;;;3.40;;
53881;SDS011;39794;55.782;37.452;2022-11-22T08:56:09;7.57;;;4.60;;
53881;SDS011;39794;55.782;37.452;2022-11-22T08:58:38;5.57;;;3.10;;
53881;SDS011;39794;55.782;37.452;2022-11-22T09:01:08;5.05;;;3.78;;
53881;SDS011;39794;55.782;37.452;2022-11-22T09:03:39;4.57;;;2.83;;
53881;SDS011;39794;55.782;37.452;2022-11-22T09:06:08;6.80;;;3.50;;
53881;SDS011;39794;55.782;37.452;2022-11-22T09:09:00;7.70;;;4.07;;
53881;SDS011;39794;55.782;37.452;2022-11-22T09:11:50;6.72;;;3.75;;
53881;SDS011;39794;55.782;37.452;2022-11-22T09:14:19;6.15;;;3.55;;
53881;SDS011;39794;55.782;37.452;2022-11-22T09:16:48;4.97;;;2.70;;
53881;SDS011;39794;55.782;37.452;2022-11-22T09:19:16;6.70;;;4.35;;
53881;SDS011;39794;55.782;37.452;2022-11-22T09:21:44;6.05;;;3.10;;
53881;SDS011;39794;55.782;37.452;2022-11-22T09:24:13;4.22;;;3.42;;
53881;SDS011;39794;55.782;37.452;2022-11-22T09:26:41;11.30;;;5.28;;
53881;SDS011;39794;55.782;37.452;2022-11-22T09:29:11;8.52;;;4.45;;
53881;SDS011;39794;55.782;37.452;2022-11-22T09:31:41;5.90;;;4.05;;
53881;SDS011;39794;55.782;37.452;2022-11-22T09:34:09;7.70;;;4.07;;
53881;SDS011;39794;55.782;37.452;2022-11-22T09:36:37;9.23;;;4.60;;
53881;SDS011;39794;55.782;37.452;2022-11-22T09:39:07;6.60;;;3.58;;
53881;SDS011;39794;55.782;37.452;2022-11-22T09:44:39;7.40;;;3.65;;
53881;SDS011;39794;55.782;37.452;2022-11-22T09:47:16;11.90;;;3.22;;
53881;SDS011;39794;55.782;37.452;2022-11-22T09:49:52;7.00;;;3.55;;
53881;SDS011;39794;55.782;37.452;2022-11-22T09:52:29;5.93;;;3.40;;
53881;SDS011;39794;55.782;37.452;2022-11-22T09:55:01;5.70;;;3.10;;
53881;SDS011;39794;55.782;37.452;2022-11-22T09:57:32;8.75;;;4.45;;
53881;SDS011;39794;55.782;37.452;2022-11-22T10:00:06;5.30;;;3.20;;
53881;SDS011;39794;55.782;37.452;2022-11-22T10:02:40;7.43;;;4.60;;
53881;SDS011;39794;55.782;37.452;2022-11-22T10:05:28;7.20;;;3.58;;
53881;SDS011;39794;55.782;37.452;2022-11-22T10:08:00;12.18;;;5.05;;
53881;SDS011;39794;55.782;37.452;2022-11-22T10:10:31;8.20;;;4.55;;
53881;SDS011;39794;55.782;37.452;2022-11-22T10:13:03;4.90;;;3.38;;
53881;SDS011;39794;55.782;37.452;2022-11-22T10:15:37;7.05;;;4.00;;
53881;SDS011;39794;55.782;37.452;2022-11-22T10:18:14;6.93;;;4.63;;
53881;SDS011;39794;55.782;37.452;2022-11-22T10:20:46;8.20;;;4.43;;
53881;SDS011;39794;55.782;37.452;2022-11-22T10:23:15;8.35;;;4.57;;
53881;SDS011;39794;55.782;37.452;2022-11-22T10:25:48;6.25;;;4.07;;
53881;SDS011;39794;55.782;37.452;2022-11-22T10:28:22;8.88;;;3.75;;
53881;SDS011;39794;55.782;37.452;2022-11-22T10:30:55;7.93;;;4.30;;
53881;SDS011;39794;55.782;37.452;2022-11-22T10:33:27;4.05;;;2.78;;
53881;SDS011;39794;55.782;37.452;2022-11-22T10:36:03;4.13;;;2.73;;
53881;SDS011;39794;55.782;37.452;2022-11-22T10:38:47;6.82;;;3.72;;
53881;SDS011;39794;55.782;37.452;2022-11-22T10:41:30;5.85;;;4.03;;
53881;SDS011;39794;55.782;37.452;2022-11-22T10:44:13;6.60;;;4.47;;
53881;SDS011;39794;55.782;37.452;2022-11-22T10:46:51;7.90;;;3.95;;
53881;SDS011;39794;55.782;37.452;2022-11-22T10:49:27;5.15;;;3.42;;
53881;SDS011;39794;55.782;37.452;2022-11-22T10:52:08;7.28;;;3.30;;
53881;SDS011;39794;55.782;37.452;2022-11-22T10:54:47;7.22;;;4.13;;
53881;SDS011;39794;55.782;37.452;2022-11-22T10:57:23;8.90;;;4.15;;
53881;SDS011;39794;55.782;37.452;2022-11-22T11:00:00;5.50;;;3.95;;
53881;SDS011;39794;55.782;37.452;2022-11-22T11:02:43;7.43;;;3.47;;
53881;SDS011;39794;55.782;37.452;2022-11-22T11:05:37;6.63;;;3.72;;
53881;SDS011;39794;55.782;37.452;2022-11-22T11:08:31;5.82;;;3.67;;
53881;SDS011;39794;55.782;37.452;2022-11-22T11:11:23;7.00;;;3.15;;
53881;SDS011;39794;55.782;37.452;2022-11-22T11:13:53;5.80;;;3.38;;
53881;SDS011;39794;55.782;37.452;2022-11-22T11:16:26;5.30;;;4.30;;
53881;SDS011;39794;55.782;37.452;2022-11-22T11:19:01;7.00;;;4.95;;
53881;SDS011;39794;55.782;37.452;2022-11-22T11:21:35;8.57;;;5.03;;
53881;SDS011;39794;55.782;37.452;2022-11-22T11:24:05;9.40;;;5.72;;
53881;SDS011;39794;55.782;37.452;2022-11-22T11:26:39;11.27;;;5.85;;
53881;SDS011;39794;55.782;37.452;2022-11-22T11:29:31;7.78;;;4.53;;
53881;SDS011;39794;55.782;37.452;2022-11-22T11:32:08;7.85;;;5.30;;
53881;SDS011;39794;55.782;37.452;2022-11-22T11:34:41;9.13;;;5.97;;
53881;SDS011;39794;55.782;37.452;2022-11-22T11:37:17;12.25;;;6.63;;
53881;SDS011;39794;55.782;37.452;2022-11-22T11:39:49;11.55;;;6.95;;
53881;SDS011;39794;55.782;37.452;2022-11-22T11:42:27;9.98;;;5.60;;
53881;SDS011;39794;55.782;37.452;2022-11-22T11:47:47;11.23;;;5.65;;
53881;SDS011;39794;55.782;37.452;2022-11-22T11:50:18;7.63;;;4.78;;
53881;SDS011;39794;55.782;37.452;2022-11-22T11:52:50;11.05;;;6.55;;
53881;SDS011;39794;55.782;37.452;2022-11-22T11:55:21;9.10;;;6.07;;
53881;SDS011;39794;55.782;37.452;2022-11-22T11:57:49;6.10;;;4.55;;
53881;SDS011;39794;55.782;37.452;2022-11-22T12:00:19;8.95;;;5.20;;
53881;SDS011;39794;55.782;37.452;2022-11-22T12:02:54;9.27;;;5.55;;
53881;SDS011;39794;55.782;37.452;2022-11-22T12:05:26;8.13;;;3.60;;
53881;SDS011;39794;55.782;37.452;2022-11-22T12:07:56;11.45;;;4.63;;
53881;SDS011;39794;55.782;37.452;2022-11-22T12:10:26;16.40;;;3.88;;
53881;SDS011;39794;55.782;37.452;2022-11-22T12:12:57;6.22;;;3.65;;
53881;SDS011;39794;55.782;37.452;2022-11-22T12:15:34;8.68;;;4.05;;
53881;SDS011;39794;55.782;37.452;2022-11-22T12:18:13;6.82;;;2.60;;
53881;SDS011;39794;55.782;37.452;2022-11-22T12:20:57;7.15;;;4.60;;
53881;SDS011;39794;55.782;37.452;2022-11-22T12:23:32;4.68;;;3.42;;
53881;SDS011;39794;55.782;37.452;2022-11-22T12:26:04;8.15;;;3.80;;
53881;SDS011;39794;55.782;37.452;2022-11-22T12:28:33;5.00;;;2.70;;
53881;SDS011;39794;55.782;37.452;2022-11-22T12:31:02;8.30;;;3.30;;
53881;SDS011;39794;55.782;37.452;2022-11-22T12:33:41;4.35;;;3.05;;
53881;SDS011;39794;55.782;37.452;2022-11-22T12:36:14;9.45;;;4.50;;
53881;SDS011;39794;55.782;37.452;2022-11-22T12:38:44;4.00;;;2.67;;
53881;SDS011;39794;55.782;37.452;2022-11-22T12:41:15;4.85;;;3.30;;
53881;SDS011;39794;55.782;37.452;2022-11-22T12:43:45;7.90;;;4.75;;
53881;SDS011;39794;55.782;37.452;2022-11-22T12:46:17;7.90;;;4.72;;
53881;SDS011;39794;55.782;37.452;2022-11-22T12:49:10;6.30;;;3.60;;
53881;SDS011;39794;55.782;37.452;2022-11-22T12:51:43;5.68;;;3.58;;
53881;SDS011;39794;55.782;37.452;2022-11-22T12:54:16;4.63;;;3.63;;
53881;SDS011;39794;55.782;37.452;2022-11-22T12:56:49;8.13;;;4.38;;
53881;SDS011;39794;55.782;37.452;2022-11-22T12:59:22;10.25;;;4.43;;
53881;SDS011;39794;55.782;37.452;2022-11-22T13:01:57;7.43;;;4.20;;
53881;SDS011;39794;55.782;37.452;2022-11-22T13:07:03;6.82;;;4.38;;
53881;SDS011;39794;55.782;37.452;2022-11-22T13:09:35;6.65;;;3.20;;
53881;SDS011;39794;55.782;37.452;2022-11-22T13:12:07;12.25;;;4.25;;
53881;SDS011;39794;55.782;37.452;2022-11-22T13:14:37;9.40;;;4.82;;
53881;SDS011;39794;55.782;37.452;2022-11-22T13:17:07;8.00;;;4.22;;
53881;SDS011;39794;55.782;37.452;2022-11-22T13:19:38;5.20;;;3.10;;
53881;SDS011;39794;55.782;37.452;2022-11-22T13:22:15;6.35;;;3.65;;
53881;SDS011;39794;55.782;37.452;2022-11-22T13:24:55;7.63;;;4.32;;
53881;SDS011;39794;55.782;37.452;2022-11-22T13:27:30;8.60;;;4.30;;
53881;SDS011;39794;55.782;37.452;2022-11-22T13:30:01;7.80;;;5.00;;
53881;SDS011;39794;55.782;37.452;2022-11-22T13:32:31;10.00;;;5.65;;
53881;SDS011;39794;55.782;37.452;2022-11-22T13:35:02;7.85;;;4.82;;
53881;SDS011;39794;55.782;37.452;2022-11-22T13:37:35;6.18;;;4.55;;
53881;SDS011;39794;55.782;37.452;2022-11-22T13:40:09;11.70;;;4.95;;
53881;SDS011;39794;55.782;37.452;2022-11-22T13:42:45;12.68;;;4.85;;
53881;SDS011;39794;55.782;37.452;2022-11-22T13:45:20;5.25;;;3.78;;
53881;SDS011;39794;55.782;37.452;2022-11-22T13:47:49;9.73;;;4.90;;
53881;SDS011;39794;55.782;37.452;2022-11-22T13:53:25;6.80;;;3.72;;
53881;SDS011;39794;55.782;37.452;2022-11-22T13:55:56;9.70;;;5.13;;
53881;SDS011;39794;55.782;37.452;2022-11-22T14:01:29;8.40;;;4.03;;
53881;SDS011;39794;55.782;37.452;2022-11-22T14:06:46;6.38;;;4.13;;
53881;SDS011;39794;55.782;37.452;2022-11-22T14:09:24;11.77;;;5.25;;
53881;SDS011;39794;55.782;37.452;2022-11-22T14:12:03;11.60;;;5.60;;
53881;SDS011;39794;55.782;37.452;2022-11-22T14:14:40;5.82;;;3.67;;
53881;SDS011;39794;55.782;37.452;2022-11-22T14:17:17;9.45;;;4.78;;
53881;SDS011;39794;55.782;37.452;2022-11-22T14:19:55;7.32;;;3.92;;
53881;SDS011;39794;55.782;37.452;2022-11-22T14:22:31;8.60;;;4.55;;
53881;SDS011;39794;55.782;37.452;2022-11-22T14:25:14;9.25;;;4.03;;
53881;SDS011;39794;55.782;37.452;2022-11-22T14:27:54;7.18;;;4.25;;
53881;SDS011;39794;55.782;37.452;2022-11-22T14:30:36;11.90;;;4.55;;
53881;SDS011;39794;55.782;37.452;2022-11-22T14:33:12;8.02;;;4.45;;
53881;SDS011;39794;55.782;37.452;2022-11-22T14:38:45;6.78;;;4.22;;
53881;SDS011;39794;55.782;37.452;2022-11-22T14:44:14;7.95;;;3.40;;
53881;SDS011;39794;55.782;37.452;2022-11-22T14:46:50;6.60;;;4.25;;
53881;SDS011;39794;55.782;37.452;2022-11-22T14:51:56;8.88;;;5.20;;
53881;SDS011;39794;55.782;37.452;2022-11-22T14:54:26;7.85;;;4.78;;
53881;SDS011;39794;55.782;37.452;2022-11-22T14:56:58;8.95;;;4.50;;
53881;SDS011;39794;55.782;37.452;2022-11-22T14:59:36;7.75;;;4.13;;
53881;SDS011;39794;55.782;37.452;2022-11-22T15:02:48;9.65;;;5.47;;
53881;SDS011;39794;55.782;37.452;2022-11-22T15:08:57;12.15;;;3.90;;
53881;SDS011;39794;55.782;37.452;2022-11-22T15:11:59;12.70;;;5.20;;
53881;SDS011;39794;55.782;37.452;2022-11-22T15:14:49;6.45;;;4.15;;
53881;SDS011;39794;55.782;37.452;2022-11-22T15:18:13;13.75;;;5.03;;
53881;SDS011;39794;55.782;37.452;2022-11-22T15:21:14;10.52;;;4.68;;
53881;SDS011;39794;55.782;37.452;2022-11-22T15:24:19;9.27;;;4.72;;